createdAt,value
2022-11-21T00:01:23.130Z,5.13
2022-11-21T00:03:50.403Z,5.53
2022-11-21T00:06:18.371Z,5.20
2022-11-21T00:08:45.677Z,5.13
2022-11-21T00:11:12.851Z,4.63
2022-11-21T00:13:40.191Z,5.57
2022-11-21T00:16:10.215Z,4.83
2022-11-21T00:18:37.298Z,7.80
2022-11-21T00:21:24.083Z,8.97
2022-11-21T00:23:53.207Z,4.57
2022-11-21T00:26:20.087Z,5.93
2022-11-21T00:28:46.959Z,5.53
2022-11-21T00:31:22.573Z,5.90
2022-11-21T00:33:49.453Z,6.27
2022-11-21T00:36:16.366Z,5.87
2022-11-21T00:38:43.240Z,7.93
2022-11-21T00:41:10.117Z,10.30
2022-11-21T00:43:36.999Z,7.80
2022-11-21T00:46:04.315Z,6.90
2022-11-21T00:48:32.425Z,9.27
2022-11-21T00:51:00.570Z,7.77
2022-11-21T00:53:28.189Z,8.30
2022-11-21T00:55:55.461Z,8.30
2022-11-21T00:58:22.331Z,9.70
2022-11-21T01:00:49.349Z,8.63
2022-11-21T01:03:16.338Z,8.77
2022-11-21T01:05:43.215Z,9.10
2022-11-21T01:08:10.077Z,10.53
2022-11-21T01:10:36.994Z,7.67
2022-11-21T01:13:04.050Z,10.50
2022-11-21T01:15:30.950Z,11.40
2022-11-21T01:17:57.820Z,9.97
2022-11-21T01:20:24.718Z,9.20
2022-11-21T01:22:51.616Z,7.90
2022-11-21T01:25:18.481Z,8.70
2022-11-21T01:27:45.355Z,9.87
2022-11-21T01:30:13.330Z,8.93
2022-11-21T01:32:40.460Z,9.97
2022-11-21T01:35:07.954Z,8.50
2022-11-21T01:37:34.843Z,9.17
2022-11-21T01:40:01.719Z,8.00
2022-11-21T01:42:28.614Z,12.90
2022-11-21T01:44:55.548Z,8.97
2022-11-21T01:47:22.904Z,9.50
2022-11-21T01:49:52.117Z,11.80
2022-11-21T01:52:30.227Z,11.43
2022-11-21T01:55:02.309Z,9.47
2022-11-21T01:57:42.851Z,8.87
2022-11-21T02:00:26.119Z,11.20
2022-11-21T02:03:04.806Z,10.43
2022-11-21T02:05:35.785Z,11.17
2022-11-21T02:08:19.677Z,12.43
2022-11-21T02:11:02.522Z,10.30
2022-11-21T02:13:29.390Z,12.17
2022-11-21T02:15:56.476Z,10.17
2022-11-21T02:18:23.339Z,11.00
2022-11-21T02:21:00.769Z,11.37
2022-11-21T02:23:46.706Z,11.23
2022-11-21T02:26:13.822Z,10.23
2022-11-21T02:28:41.422Z,8.87
2022-11-21T02:31:08.319Z,10.47
2022-11-21T02:33:35.256Z,11.40
2022-11-21T02:36:02.770Z,12.70
2022-11-21T02:38:34.443Z,10.77
2022-11-21T02:41:07.740Z,13.10
2022-11-21T02:44:15.731Z,10.77
2022-11-21T02:46:50.335Z,14.80
2022-11-21T02:49:27.526Z,14.07
2022-11-21T02:51:54.390Z,14.00
2022-11-21T02:54:21.266Z,13.30
2022-11-21T02:56:48.201Z,11.53
2022-11-21T02:59:15.090Z,14.77
2022-11-21T03:01:41.967Z,15.10
2022-11-21T03:04:08.856Z,13.90
2022-11-21T03:06:35.738Z,13.83
2022-11-21T03:09:02.608Z,14.07
2022-11-21T03:11:29.491Z,15.60
2022-11-21T03:13:56.357Z,15.77
2022-11-21T03:16:23.292Z,14.77
2022-11-21T03:18:50.162Z,15.57
2022-11-21T03:21:17.048Z,14.13
2022-11-21T03:23:43.922Z,16.10
2022-11-21T03:26:10.807Z,11.30
2022-11-21T03:28:37.677Z,15.87
2022-11-21T03:31:04.632Z,16.10
2022-11-21T03:33:31.494Z,12.93
2022-11-21T03:35:58.375Z,16.63
2022-11-21T03:38:25.289Z,16.20
2022-11-21T03:40:52.176Z,16.70
2022-11-21T03:43:19.051Z,15.13
2022-11-21T03:45:49.279Z,18.20
2022-11-21T03:48:16.239Z,16.33
2022-11-21T03:50:44.248Z,15.53
2022-11-21T03:53:11.524Z,14.73
2022-11-21T03:55:38.610Z,14.23
2022-11-21T03:58:05.931Z,15.27
2022-11-21T04:00:32.804Z,14.07
2022-11-21T04:02:59.784Z,21.30
2022-11-21T04:05:26.658Z,13.63
2022-11-21T04:07:54.012Z,17.30
2022-11-21T04:10:20.990Z,15.43
2022-11-21T04:12:47.871Z,14.50
2022-11-21T04:15:14.799Z,16.60
2022-11-21T04:17:41.759Z,14.67
2022-11-21T04:20:09.719Z,16.30
2022-11-21T04:22:36.608Z,18.80
2022-11-21T04:25:03.601Z,17.20
2022-11-21T04:27:30.499Z,17.57
2022-11-21T04:29:57.353Z,16.80
2022-11-21T04:32:24.231Z,15.90
2022-11-21T04:34:51.120Z,17.33
2022-11-21T04:37:18.101Z,17.33
2022-11-21T04:39:45.068Z,14.90
2022-11-21T04:42:11.950Z,15.50
2022-11-21T04:44:41.621Z,17.00
2022-11-21T04:47:08.646Z,15.40
2022-11-21T04:49:35.514Z,13.97
2022-11-21T04:52:02.391Z,14.27
2022-11-21T04:54:29.596Z,17.30
2022-11-21T04:56:56.778Z,18.00
2022-11-21T04:59:23.677Z,15.37
2022-11-21T05:01:50.556Z,16.37
2022-11-21T05:04:17.418Z,17.60
2022-11-21T05:06:44.295Z,16.23
2022-11-21T05:09:11.186Z,15.80
2022-11-21T05:11:56.682Z,16.87
2022-11-21T05:14:26.603Z,17.57
2022-11-21T05:16:53.959Z,15.90
2022-11-21T05:19:20.828Z,15.27
2022-11-21T05:21:47.702Z,16.17
2022-11-21T05:24:14.563Z,15.83
2022-11-21T05:26:41.459Z,21.10
2022-11-21T05:29:08.323Z,14.50
2022-11-21T05:31:35.245Z,15.30
2022-11-21T05:34:02.111Z,15.70
2022-11-21T05:36:28.984Z,17.03
2022-11-21T05:38:55.891Z,15.50
2022-11-21T05:41:22.969Z,16.47
2022-11-21T05:43:50.148Z,14.50
2022-11-21T05:46:20.686Z,16.80
2022-11-21T05:48:48.849Z,14.30
2022-11-21T05:51:17.502Z,18.90
2022-11-21T05:53:45.185Z,16.50
2022-11-21T05:56:16.243Z,16.97
2022-11-21T05:58:43.620Z,14.80
2022-11-21T06:01:14.577Z,15.50
2022-11-21T06:03:43.220Z,17.43
2022-11-21T06:06:17.663Z,15.97
2022-11-21T06:08:47.379Z,17.77
2022-11-21T06:11:16.564Z,17.60
2022-11-21T06:13:44.002Z,17.50
2022-11-21T06:16:16.839Z,17.53
2022-11-21T06:18:46.340Z,14.57
2022-11-21T06:21:16.460Z,19.47
2022-11-21T06:23:44.393Z,18.17
2022-11-21T06:26:18.431Z,12.80
2022-11-21T06:28:46.216Z,16.00
2022-11-21T06:31:19.829Z,18.80
2022-11-21T06:33:47.001Z,15.77
2022-11-21T06:36:16.637Z,19.43
2022-11-21T06:38:44.681Z,18.43
2022-11-21T06:41:18.125Z,15.03
2022-11-21T06:43:46.062Z,15.73
2022-11-21T06:46:14.140Z,18.17
2022-11-21T06:48:42.216Z,17.27
2022-11-21T06:51:20.123Z,19.60
2022-11-21T06:53:48.817Z,16.77
2022-11-21T06:56:15.814Z,16.13
2022-11-21T06:58:42.682Z,18.53
2022-11-21T07:01:10.719Z,15.30
2022-11-21T07:03:37.856Z,18.33
2022-11-21T07:06:05.554Z,17.20
2022-11-21T07:08:35.941Z,16.97
2022-11-21T07:13:53.659Z,17.00
2022-11-21T07:16:20.595Z,16.37
2022-11-21T07:18:47.539Z,17.30
2022-11-21T07:21:14.563Z,17.23
2022-11-21T07:23:41.487Z,15.27
2022-11-21T07:26:10.228Z,19.33
2022-11-21T07:28:37.153Z,18.77
2022-11-21T07:31:10.103Z,16.90
2022-11-21T07:33:40.003Z,17.20
2022-11-21T07:36:07.255Z,18.57
2022-11-21T07:38:34.175Z,15.90
2022-11-21T07:41:01.092Z,18.27
2022-11-21T07:43:27.963Z,18.30
2022-11-21T07:45:54.828Z,20.63
2022-11-21T07:48:21.699Z,22.03
2022-11-21T07:50:48.560Z,21.40
2022-11-21T07:53:15.458Z,20.03
2022-11-21T07:55:42.641Z,25.37
2022-11-21T07:58:15.488Z,23.20
2022-11-21T08:00:43.186Z,17.47
2022-11-21T08:03:12.181Z,19.43
2022-11-21T08:05:41.900Z,18.60
2022-11-21T08:08:10.413Z,18.20
2022-11-21T08:10:39.693Z,19.57
2022-11-21T08:13:06.613Z,19.47
2022-11-21T08:15:33.648Z,17.87
2022-11-21T08:18:11.270Z,20.67
2022-11-21T08:20:38.613Z,20.83
2022-11-21T08:23:06.617Z,22.93
2022-11-21T08:25:34.585Z,19.37
2022-11-21T08:28:02.904Z,18.63
2022-11-21T08:30:29.842Z,18.13
2022-11-21T08:32:58.896Z,16.40
2022-11-21T08:35:26.729Z,16.97
2022-11-21T08:37:58.388Z,18.67
2022-11-21T08:40:27.442Z,20.27
2022-11-21T08:43:02.689Z,17.87
2022-11-21T08:45:29.939Z,15.73
2022-11-21T08:47:56.819Z,20.97
2022-11-21T08:50:24.483Z,19.17
2022-11-21T08:52:51.399Z,17.80
2022-11-21T08:55:18.299Z,18.83
2022-11-21T08:57:45.177Z,18.37
2022-11-21T09:00:13.632Z,17.73
2022-11-21T09:02:40.658Z,17.13
2022-11-21T09:05:08.170Z,15.90
2022-11-21T09:07:36.510Z,17.00
2022-11-21T09:10:03.947Z,16.87
2022-11-21T09:12:31.617Z,16.00
2022-11-21T09:15:17.281Z,16.50
2022-11-21T09:18:02.809Z,14.13
2022-11-21T09:20:34.559Z,16.10
2022-11-21T09:23:10.084Z,21.10
2022-11-21T09:25:37.205Z,17.47
2022-11-21T09:28:06.950Z,17.67
2022-11-21T09:30:34.514Z,14.50
2022-11-21T09:33:02.803Z,15.60
2022-11-21T09:35:29.994Z,14.90
2022-11-21T09:37:58.041Z,26.10
2022-11-21T09:40:25.926Z,14.10
2022-11-21T09:43:14.625Z,16.43
2022-11-21T09:45:48.331Z,17.70
2022-11-21T09:48:25.078Z,15.90
2022-11-21T09:50:59.171Z,17.47
2022-11-21T09:53:36.801Z,15.50
2022-11-21T09:56:11.704Z,15.70
2022-11-21T09:58:42.586Z,12.63
2022-11-21T10:01:12.817Z,18.00
2022-11-21T10:03:54.962Z,15.23
2022-11-21T10:06:29.533Z,17.97
2022-11-21T10:09:31.172Z,11.93
2022-11-21T10:12:38.285Z,16.83
2022-11-21T10:15:34.606Z,15.03
2022-11-21T10:18:31.939Z,13.77
2022-11-21T10:21:59.589Z,12.63
2022-11-21T10:25:15.228Z,15.50
2022-11-21T10:27:51.519Z,13.80
2022-11-21T10:30:21.629Z,15.10
2022-11-21T10:32:58.493Z,12.27
2022-11-21T10:35:41.331Z,11.27
2022-11-21T10:38:25.967Z,13.80
2022-11-21T10:41:05.033Z,12.30
2022-11-21T10:44:02.829Z,12.77
2022-11-21T10:46:29.708Z,12.27
2022-11-21T10:49:00.854Z,13.30
2022-11-21T10:51:54.566Z,12.33
2022-11-21T10:54:33.238Z,15.60
2022-11-21T10:57:18.947Z,11.70
2022-11-21T11:00:13.203Z,11.17
2022-11-21T11:02:56.544Z,11.67
2022-11-21T11:05:25.687Z,9.93
2022-11-21T11:08:03.488Z,14.20
2022-11-21T11:10:33.017Z,15.10
2022-11-21T11:16:11.684Z,9.70
2022-11-21T11:18:57.934Z,10.40
2022-11-21T11:21:31.277Z,13.17
2022-11-21T11:24:10.195Z,12.90
2022-11-21T11:26:49.433Z,12.27
2022-11-21T11:29:22.468Z,11.57
2022-11-21T11:32:04.286Z,15.30
2022-11-21T11:34:48.991Z,9.63
2022-11-21T11:37:47.099Z,11.30
2022-11-21T11:40:37.197Z,10.60
2022-11-21T11:44:05.720Z,11.23
2022-11-21T11:47:14.225Z,11.33
2022-11-21T11:50:11.530Z,13.07
2022-11-21T11:52:57.300Z,11.70
2022-11-21T11:55:46.966Z,10.63
2022-11-21T11:58:33.331Z,9.70
2022-11-21T12:01:15.303Z,11.77
2022-11-21T12:04:16.399Z,14.10
2022-11-21T12:08:20.100Z,13.20
2022-11-21T12:10:30.880Z,16.13
2022-11-21T12:13:14.261Z,10.80
2022-11-21T12:15:50.347Z,15.10
2022-11-21T12:18:52.391Z,10.13
2022-11-21T12:21:19.812Z,12.70
2022-11-21T12:23:55.618Z,10.57
2022-11-21T12:27:20.403Z,12.83
2022-11-21T12:30:18.944Z,8.27
2022-11-21T12:33:08.082Z,11.43
2022-11-21T12:36:17.784Z,12.57
2022-11-21T12:39:40.767Z,9.10
2022-11-21T12:42:51.969Z,10.90
2022-11-21T12:45:37.209Z,10.40
2022-11-21T12:48:39.762Z,12.50
2022-11-21T12:52:07.955Z,12.40
2022-11-21T12:54:53.395Z,9.00
2022-11-21T12:57:21.913Z,9.87
2022-11-21T13:00:15.360Z,11.83
2022-11-21T13:03:21.260Z,19.40
2022-11-21T13:05:52.035Z,13.17
2022-11-21T13:08:29.968Z,13.70
2022-11-21T13:11:40.429Z,12.50
2022-11-21T13:14:37.679Z,11.17
2022-11-21T13:17:12.968Z,11.90
2022-11-21T13:20:02.066Z,12.13
2022-11-21T13:22:37.891Z,12.80
2022-11-21T13:25:41.685Z,10.20
2022-11-21T13:28:17.232Z,12.90
2022-11-21T13:30:59.041Z,13.63
2022-11-21T13:33:35.046Z,12.77
2022-11-21T13:36:34.936Z,11.77
2022-11-21T13:39:03.062Z,10.17
2022-11-21T13:41:54.468Z,12.40
2022-11-21T13:44:33.307Z,12.70
2022-11-21T13:47:02.752Z,16.47
2022-11-21T13:49:44.081Z,10.23
2022-11-21T13:52:19.778Z,12.47
2022-11-21T13:55:15.326Z,12.20
2022-11-21T13:57:54.194Z,13.17
2022-11-21T14:00:58.471Z,12.63
2022-11-21T14:03:54.687Z,12.50
2022-11-21T14:06:33.649Z,11.07
2022-11-21T14:09:23.833Z,12.90
2022-11-21T14:12:33.273Z,11.23
2022-11-21T14:15:02.044Z,11.67
2022-11-21T14:17:48.900Z,11.40
2022-11-21T14:20:30.149Z,15.27
2022-11-21T14:23:19.755Z,11.63
2022-11-21T14:25:52.095Z,10.30
2022-11-21T14:28:27.468Z,14.60
2022-11-21T14:31:08.676Z,13.60
2022-11-21T14:33:38.692Z,10.93
2022-11-21T14:36:12.906Z,11.87
2022-11-21T14:39:21.038Z,18.10
2022-11-21T14:41:43.073Z,12.97
2022-11-21T14:44:09.832Z,12.07
2022-11-21T14:46:41.453Z,10.10
2022-11-21T14:49:17.439Z,13.77
2022-11-21T14:52:06.537Z,12.10
2022-11-21T14:55:06.349Z,13.17
2022-11-21T14:57:43.346Z,11.90
2022-11-21T15:00:51.201Z,11.37
2022-11-21T15:03:24.124Z,13.70
2022-11-21T15:06:06.455Z,10.33
2022-11-21T15:11:32.681Z,11.20
2022-11-21T15:14:15.971Z,14.10
2022-11-21T15:16:49.938Z,13.57
2022-11-21T15:19:26.904Z,11.13
2022-11-21T15:21:57.957Z,16.03
2022-11-21T15:24:43.245Z,25.37
2022-11-21T15:27:28.456Z,19.67
2022-11-21T15:30:29.791Z,13.80
2022-11-21T15:33:16.709Z,19.20
2022-11-21T15:35:54.272Z,13.57
2022-11-21T15:38:49.766Z,13.93
2022-11-21T15:41:16.505Z,19.00
2022-11-21T15:43:48.395Z,17.63
2022-11-21T15:46:31.416Z,17.60
2022-11-21T15:52:11.272Z,21.63
2022-11-21T15:54:38.758Z,18.77
2022-11-21T15:57:05.611Z,17.10
2022-11-21T15:57:15.554Z,16.47
2022-11-21T15:59:32.755Z,16.93
2022-11-21T16:01:59.775Z,17.60
2022-11-21T16:04:27.298Z,18.17
2022-11-21T16:06:54.935Z,14.17
2022-11-21T16:09:21.878Z,13.90
2022-11-21T16:11:48.742Z,16.03
2022-11-21T16:14:18.178Z,18.17
2022-11-21T16:16:47.521Z,15.30
2022-11-21T16:19:15.757Z,15.17
2022-11-21T16:21:43.475Z,15.10
2022-11-21T16:24:10.490Z,19.70
2022-11-21T16:26:37.382Z,17.03
2022-11-21T16:29:06.973Z,18.67
2022-11-21T16:31:33.879Z,18.80
2022-11-21T16:34:01.088Z,18.57
2022-11-21T16:36:30.444Z,17.10
2022-11-21T16:39:01.733Z,15.00
2022-11-21T16:41:29.200Z,15.60
2022-11-21T16:43:56.320Z,17.23
2022-11-21T16:46:24.931Z,19.83
2022-11-21T16:49:02.858Z,16.20
2022-11-21T16:51:30.340Z,13.60
2022-11-21T16:53:59.656Z,14.73
2022-11-21T16:56:29.935Z,13.60
2022-11-21T16:58:56.807Z,11.63
2022-11-21T17:01:26.909Z,11.47
2022-11-21T17:03:54.136Z,11.70
2022-11-21T17:06:28.993Z,16.70
2022-11-21T17:08:56.348Z,17.70
2022-11-21T17:11:30.554Z,14.03
2022-11-21T17:14:04.914Z,11.57
2022-11-21T17:16:32.597Z,9.77
2022-11-21T17:19:01.574Z,11.80
2022-11-21T17:21:29.284Z,17.53
2022-11-21T17:23:56.363Z,15.77
2022-11-21T17:26:27.002Z,17.53
2022-11-21T17:28:58.975Z,16.00
2022-11-21T17:31:26.782Z,19.23
2022-11-21T17:33:55.987Z,19.73
2022-11-21T17:36:26.124Z,15.20
2022-11-21T17:38:54.474Z,15.53
2022-11-21T17:41:23.534Z,14.10
2022-11-21T17:43:55.910Z,15.30
2022-11-21T17:46:25.339Z,13.60
2022-11-21T17:48:58.100Z,12.43
2022-11-21T17:51:34.691Z,12.73
2022-11-21T17:54:02.671Z,19.20
2022-11-21T17:56:33.236Z,21.63
2022-11-21T17:59:00.605Z,18.40
2022-11-21T18:01:28.317Z,15.83
2022-11-21T18:04:00.836Z,18.60
2022-11-21T18:06:39.138Z,16.30
2022-11-21T18:09:07.852Z,15.70
2022-11-21T18:11:39.864Z,15.00
2022-11-21T18:14:09.631Z,11.00
2022-11-21T18:16:37.154Z,14.70
2022-11-21T18:19:04.018Z,16.93
2022-11-21T18:21:33.793Z,39.60
2022-11-21T18:24:00.687Z,17.50
2022-11-21T18:26:34.382Z,13.47
2022-11-21T18:31:51.467Z,13.77
2022-11-21T18:34:18.429Z,14.40
2022-11-21T18:36:47.602Z,13.33
2022-11-21T18:39:15.604Z,16.10
2022-11-21T18:41:43.561Z,12.27
2022-11-21T18:44:11.481Z,13.13
2022-11-21T18:46:39.671Z,12.70
2022-11-21T18:49:08.040Z,13.67
2022-11-21T18:51:36.644Z,14.17
2022-11-21T18:54:08.106Z,11.77
2022-11-21T18:56:37.030Z,12.97
2022-11-21T18:59:05.618Z,13.23
2022-11-21T19:01:33.970Z,16.53
2022-11-21T19:04:00.949Z,16.80
2022-11-21T19:06:28.333Z,15.10
2022-11-21T19:08:57.242Z,13.73
2022-11-21T19:11:27.647Z,18.20
2022-11-21T19:13:56.204Z,13.50
2022-11-21T19:16:25.769Z,17.60
2022-11-21T19:21:42.117Z,12.97
2022-11-21T19:24:14.112Z,17.00
2022-11-21T19:26:42.266Z,16.53
2022-11-21T19:29:09.830Z,21.00
2022-11-21T19:31:43.065Z,23.20
2022-11-21T19:34:15.478Z,29.33
2022-11-21T19:36:43.331Z,15.80
2022-11-21T19:39:10.526Z,16.13
2022-11-21T19:41:37.746Z,18.17
2022-11-21T19:44:04.918Z,24.30
2022-11-21T19:46:36.789Z,29.50
2022-11-21T19:49:06.647Z,28.87
2022-11-21T19:51:40.396Z,26.23
2022-11-21T19:54:10.376Z,19.93
2022-11-21T19:56:37.461Z,22.00
2022-11-21T19:59:05.258Z,22.57
2022-11-21T20:01:34.650Z,21.00
2022-11-21T20:04:04.532Z,20.83
2022-11-21T20:06:37.954Z,20.23
2022-11-21T20:09:08.938Z,25.80
2022-11-21T20:11:37.193Z,31.50
2022-11-21T20:14:04.373Z,29.17
2022-11-21T20:16:38.070Z,19.47
2022-11-21T20:19:08.878Z,25.17
2022-11-21T20:21:37.207Z,18.40
2022-11-21T20:24:05.039Z,17.37
2022-11-21T20:26:32.435Z,20.90
2022-11-21T20:28:59.329Z,18.40
2022-11-21T20:31:29.166Z,17.27
2022-11-21T20:34:02.537Z,15.60
2022-11-21T20:36:32.819Z,16.80
2022-11-21T20:39:07.099Z,16.77
2022-11-21T20:41:36.260Z,21.30
2022-11-21T20:46:54.471Z,17.73
2022-11-21T20:49:21.618Z,18.37
2022-11-21T20:54:36.441Z,19.13
2022-11-21T20:57:03.351Z,18.13
2022-11-21T20:59:30.441Z,18.70
2022-11-21T21:01:57.621Z,21.20
2022-11-21T21:04:24.535Z,17.70
2022-11-21T21:06:51.425Z,23.67
2022-11-21T21:09:18.304Z,20.97
2022-11-21T21:11:53.379Z,20.07
2022-11-21T21:14:22.215Z,19.87
2022-11-21T21:16:49.793Z,18.10
2022-11-21T21:19:17.391Z,21.87
2022-11-21T21:21:44.642Z,22.30
2022-11-21T21:24:12.805Z,21.67
2022-11-21T21:26:46.338Z,23.00
2022-11-21T21:29:18.088Z,20.90
2022-11-21T21:31:50.465Z,20.43
2022-11-21T21:34:22.093Z,24.13
2022-11-21T21:36:49.860Z,18.33
2022-11-21T21:39:16.850Z,18.73
2022-11-21T21:41:46.028Z,18.93
2022-11-21T21:44:13.962Z,18.43
2022-11-21T21:46:40.902Z,20.23
2022-11-21T21:49:07.785Z,21.00
2022-11-21T21:51:37.000Z,20.40
2022-11-21T21:54:04.179Z,22.03
2022-11-21T21:56:31.058Z,22.13
2022-11-21T21:58:58.607Z,22.50
2022-11-21T22:01:31.849Z,19.67
2022-11-21T22:04:01.938Z,25.13
2022-11-21T22:06:29.472Z,25.57
2022-11-21T22:08:56.563Z,25.30
2022-11-21T22:11:29.887Z,27.40
2022-11-21T22:14:06.921Z,29.33
2022-11-21T22:16:34.432Z,28.33
2022-11-21T22:19:01.300Z,22.53
2022-11-21T22:21:34.577Z,24.60
2022-11-21T22:24:27.431Z,24.50
2022-11-21T22:26:54.682Z,28.63
2022-11-21T22:29:21.602Z,25.13
2022-11-21T22:31:48.484Z,24.80
2022-11-21T22:34:15.625Z,30.77
2022-11-21T22:36:42.957Z,25.50
2022-11-21T22:39:09.845Z,27.03
2022-11-21T22:41:36.720Z,29.47
2022-11-21T22:44:03.656Z,29.63
2022-11-21T22:46:30.875Z,29.10
2022-11-21T22:48:58.373Z,30.77
2022-11-21T22:51:31.687Z,24.90
2022-11-21T22:53:58.689Z,27.10
2022-11-21T22:56:27.041Z,27.20
2022-11-21T22:58:54.406Z,29.30
2022-11-21T23:01:24.394Z,27.63
2022-11-21T23:03:52.724Z,29.90
2022-11-21T23:06:25.834Z,30.50
2022-11-21T23:08:56.970Z,30.77
2022-11-21T23:11:30.692Z,33.70
2022-11-21T23:13:58.096Z,25.87
2022-11-21T23:16:26.095Z,28.63
2022-11-21T23:18:53.907Z,39.87
2022-11-21T23:21:21.502Z,24.80
2022-11-21T23:23:48.495Z,24.20
2022-11-21T23:26:15.661Z,24.53
2022-11-21T23:28:42.546Z,22.00
2022-11-21T23:31:10.379Z,19.60
2022-11-21T23:33:37.260Z,23.30
2022-11-21T23:36:04.560Z,22.57
2022-11-21T23:38:31.448Z,21.23
2022-11-21T23:40:58.308Z,25.17
2022-11-21T23:43:25.177Z,21.10
2022-11-21T23:45:53.545Z,21.93
2022-11-21T23:48:21.213Z,20.50
2022-11-21T23:50:50.817Z,23.33
2022-11-21T23:53:19.104Z,22.47
2022-11-21T23:55:46.091Z,23.57
2022-11-21T23:58:13.780Z,21.13
